createdAt,value
2022-10-13T00:01:28.263Z,89.06
2022-10-13T00:03:58.806Z,88.13
2022-10-13T00:06:29.164Z,88.32
2022-10-13T00:08:59.834Z,88.96
2022-10-13T00:11:30.467Z,88.64
2022-10-13T00:14:00.845Z,88.22
2022-10-13T00:16:30.857Z,88.22
2022-10-13T00:19:01.556Z,87.90
2022-10-13T00:21:31.537Z,88.59
2022-10-13T00:24:01.965Z,88.25
2022-10-13T00:26:32.630Z,87.72
2022-10-13T00:29:03.540Z,89.12
2022-10-13T00:31:34.131Z,89.46
2022-10-13T00:34:04.446Z,89.95
2022-10-13T00:36:35.055Z,89.17
2022-10-13T00:39:05.364Z,88.29
2022-10-13T00:41:35.779Z,87.93
2022-10-13T00:44:06.096Z,88.54
2022-10-13T00:46:36.104Z,87.62
2022-10-13T00:49:06.454Z,87.76
2022-10-13T00:51:37.180Z,87.38
2022-10-13T00:54:07.763Z,87.27
2022-10-13T00:56:38.343Z,87.12
2022-10-13T00:59:09.069Z,87.53
2022-10-13T01:01:39.556Z,88.15
2022-10-13T01:04:10.152Z,87.88
2022-10-13T01:06:40.546Z,87.78
2022-10-13T01:09:10.557Z,88.08
2022-10-13T01:11:41.184Z,89.22
2022-10-13T01:14:11.562Z,89.60
2022-10-13T01:16:42.186Z,89.56
2022-10-13T01:19:12.555Z,89.04
2022-10-13T01:21:42.832Z,88.07
2022-10-13T01:24:13.495Z,87.92
2022-10-13T01:26:43.824Z,87.37
2022-10-13T01:29:14.486Z,87.88
2022-10-13T01:31:44.554Z,88.17
2022-10-13T01:34:15.138Z,88.57
2022-10-13T01:36:45.785Z,88.57
2022-10-13T01:39:15.949Z,88.23
2022-10-13T01:41:46.417Z,88.36
2022-10-13T01:44:16.530Z,88.19
2022-10-13T01:46:46.825Z,88.35
2022-10-13T01:49:16.800Z,88.20
2022-10-13T01:51:47.420Z,88.29
2022-10-13T01:54:17.605Z,89.55
2022-10-13T01:56:47.766Z,89.53
2022-10-13T01:59:18.413Z,90.20
2022-10-13T02:01:49.014Z,88.79
2022-10-13T02:04:19.308Z,88.61
2022-10-13T02:06:49.674Z,88.66
2022-10-13T02:09:19.684Z,89.19
2022-10-13T02:11:50.041Z,88.91
2022-10-13T02:14:20.738Z,88.45
2022-10-13T02:16:51.290Z,89.01
2022-10-13T02:19:21.877Z,88.64
2022-10-13T02:21:52.513Z,88.94
2022-10-13T02:24:23.160Z,89.11
2022-10-13T02:26:53.508Z,88.83
2022-10-13T02:29:23.519Z,89.39
2022-10-13T02:31:53.838Z,89.83
2022-10-13T02:34:24.153Z,91.93
2022-10-13T02:36:54.706Z,92.40
2022-10-13T02:39:25.168Z,92.30
2022-10-13T02:41:55.786Z,92.31
2022-10-13T02:44:26.714Z,91.57
2022-10-13T02:46:56.692Z,91.23
2022-10-13T02:49:27.652Z,90.59
2022-10-13T02:51:58.447Z,90.82
2022-10-13T02:54:28.841Z,90.73
2022-10-13T02:56:59.221Z,90.87
2022-10-13T02:59:29.995Z,91.26
2022-10-13T03:02:00.316Z,92.33
2022-10-13T03:04:30.929Z,92.18
2022-10-13T03:07:00.957Z,92.30
2022-10-13T03:09:31.090Z,91.58
2022-10-13T03:12:01.313Z,92.24
2022-10-13T03:14:31.675Z,92.00
2022-10-13T03:17:02.507Z,92.73
2022-10-13T03:19:32.562Z,92.41
2022-10-13T03:22:02.584Z,92.00
2022-10-13T03:24:32.659Z,91.69
2022-10-13T03:27:03.350Z,90.85
2022-10-13T03:29:33.874Z,90.97
2022-10-13T03:32:04.415Z,90.68
2022-10-13T03:34:35.270Z,90.94
2022-10-13T03:37:05.930Z,91.03
2022-10-13T03:39:36.611Z,91.49
2022-10-13T03:42:06.806Z,91.70
2022-10-13T03:44:37.571Z,91.52
2022-10-13T03:47:07.593Z,92.44
2022-10-13T03:49:38.288Z,91.66
2022-10-13T03:52:08.938Z,91.71
2022-10-13T03:54:39.432Z,91.99
2022-10-13T03:57:10.287Z,92.29
2022-10-13T03:59:40.847Z,92.06
2022-10-13T04:02:11.371Z,91.80
2022-10-13T04:04:41.404Z,91.12
2022-10-13T04:07:12.234Z,90.52
2022-10-13T04:09:42.264Z,89.92
2022-10-13T04:12:15.122Z,90.10
2022-10-13T04:14:42.877Z,90.25
2022-10-13T04:17:13.447Z,89.94
2022-10-13T04:19:43.925Z,90.54
2022-10-13T04:22:14.690Z,90.28
2022-10-13T04:24:45.456Z,90.22
2022-10-13T04:27:15.741Z,89.93
2022-10-13T04:29:46.247Z,90.01
2022-10-13T04:32:16.646Z,89.62
2022-10-13T04:34:47.405Z,90.26
2022-10-13T04:37:18.303Z,91.54
2022-10-13T04:39:49.273Z,92.97
2022-10-13T04:42:19.680Z,92.74
2022-10-13T04:44:50.326Z,91.08
2022-10-13T04:47:20.933Z,90.75
2022-10-13T04:49:51.839Z,91.12
2022-10-13T04:52:22.434Z,90.94
2022-10-13T04:54:53.008Z,90.88
2022-10-13T04:57:22.954Z,90.50
2022-10-13T04:59:53.317Z,90.34
2022-10-13T05:02:23.612Z,89.96
2022-10-13T05:04:54.252Z,90.32
2022-10-13T05:07:24.922Z,89.93
2022-10-13T05:09:55.134Z,90.01
2022-10-13T05:12:25.722Z,90.29
2022-10-13T05:14:55.790Z,91.29
2022-10-13T05:17:26.041Z,93.25
2022-10-13T05:19:56.575Z,94.63
2022-10-13T05:22:26.921Z,94.01
2022-10-13T05:24:57.248Z,93.00
2022-10-13T05:27:27.508Z,93.19
2022-10-13T05:29:58.176Z,94.17
2022-10-13T05:32:28.369Z,92.76
2022-10-13T05:34:58.649Z,93.63
2022-10-13T05:37:29.226Z,94.34
2022-10-13T05:39:59.512Z,93.80
2022-10-13T05:42:29.554Z,93.28
2022-10-13T05:44:59.926Z,94.09
2022-10-13T05:47:30.596Z,93.74
2022-10-13T05:50:01.187Z,93.45
2022-10-13T05:52:31.225Z,93.18
2022-10-13T05:55:01.919Z,94.79
2022-10-13T05:57:32.209Z,94.54
2022-10-13T06:00:03.129Z,95.89
2022-10-13T06:02:33.941Z,95.73
2022-10-13T06:05:04.059Z,94.18
2022-10-13T06:07:34.902Z,94.07
2022-10-13T06:10:04.957Z,93.29
2022-10-13T06:12:35.838Z,93.19
2022-10-13T06:15:06.172Z,93.22
2022-10-13T06:17:36.635Z,93.19
2022-10-13T06:20:07.535Z,92.79
2022-10-13T06:22:38.134Z,92.70
2022-10-13T06:25:08.954Z,93.10
2022-10-13T06:27:39.043Z,92.88
2022-10-13T06:30:09.817Z,96.19
2022-10-13T06:32:40.648Z,94.34
2022-10-13T06:35:10.865Z,93.48
2022-10-13T06:37:41.744Z,92.42
2022-10-13T06:40:11.722Z,92.60
2022-10-13T06:42:42.314Z,92.49
2022-10-13T06:45:13.039Z,92.76
2022-10-13T06:47:43.160Z,92.65
2022-10-13T06:50:13.999Z,92.95
2022-10-13T06:52:44.410Z,92.83
2022-10-13T06:55:14.861Z,93.41
2022-10-13T06:57:44.941Z,94.12
2022-10-13T07:00:15.779Z,95.13
2022-10-13T07:02:46.288Z,94.93
2022-10-13T07:05:16.337Z,94.25
2022-10-13T07:07:46.565Z,93.69
2022-10-13T07:10:17.104Z,94.50
2022-10-13T07:12:47.418Z,94.18
2022-10-13T07:15:17.417Z,93.58
2022-10-13T07:17:48.153Z,93.67
2022-10-13T07:20:18.809Z,94.49
2022-10-13T07:22:49.010Z,94.16
2022-10-13T07:25:19.768Z,94.60
2022-10-13T07:27:50.084Z,94.06
2022-10-13T07:30:20.305Z,94.12
2022-10-13T07:32:50.710Z,93.70
2022-10-13T07:35:21.386Z,95.62
2022-10-13T07:37:51.657Z,95.35
2022-10-13T07:40:22.275Z,95.80
2022-10-13T07:42:52.345Z,95.88
2022-10-13T07:45:22.616Z,95.12
2022-10-13T07:47:53.096Z,95.00
2022-10-13T07:50:25.460Z,95.41
2022-10-13T07:52:53.930Z,95.24
2022-10-13T07:55:24.472Z,94.60
2022-10-13T07:57:54.619Z,94.62
2022-10-13T08:00:25.267Z,94.56
2022-10-13T08:02:55.297Z,94.45
2022-10-13T08:05:25.919Z,94.17
2022-10-13T08:07:58.450Z,95.84
2022-10-13T08:10:26.818Z,94.61
2022-10-13T08:12:57.521Z,95.45
2022-10-13T08:15:27.991Z,95.73
2022-10-13T08:17:58.119Z,96.01
2022-10-13T08:20:36.199Z,95.10
2022-10-13T08:22:58.570Z,94.52
2022-10-13T08:25:29.130Z,93.98
2022-10-13T08:28:00.648Z,94.12
2022-10-13T08:30:30.436Z,94.53
2022-10-13T08:33:01.084Z,94.04
2022-10-13T08:35:34.867Z,94.35
2022-10-13T08:38:01.910Z,94.12
2022-10-13T08:40:32.789Z,94.12
2022-10-13T08:43:03.323Z,94.11
2022-10-13T08:45:41.490Z,94.11
2022-10-13T08:48:04.050Z,95.15
2022-10-13T08:50:34.684Z,94.43
2022-10-13T08:53:04.654Z,94.83
2022-10-13T08:55:34.881Z,95.09
2022-10-13T08:58:05.435Z,94.15
2022-10-13T09:00:35.967Z,94.16
2022-10-13T09:03:06.597Z,93.64
2022-10-13T09:05:37.138Z,93.42
2022-10-13T09:08:07.562Z,93.06
2022-10-13T09:10:38.149Z,92.95
2022-10-13T09:13:08.311Z,93.37
2022-10-13T09:15:39.154Z,92.75
2022-10-13T09:18:09.870Z,92.73
2022-10-13T09:20:40.383Z,93.03
2022-10-13T09:23:10.531Z,94.82
2022-10-13T09:25:40.971Z,93.82
2022-10-13T09:28:11.199Z,93.80
2022-10-13T09:30:41.604Z,93.37
2022-10-13T09:33:12.011Z,92.93
2022-10-13T09:35:42.775Z,92.82
2022-10-13T09:38:13.254Z,92.64
2022-10-13T09:43:14.787Z,92.66
2022-10-13T09:45:45.282Z,92.50
2022-10-13T09:48:15.666Z,91.82
2022-10-13T09:50:46.423Z,92.05
2022-10-13T09:53:16.843Z,92.14
2022-10-13T09:55:47.287Z,92.14
2022-10-13T09:58:17.626Z,92.18
2022-10-13T10:00:48.407Z,92.55
2022-10-13T10:03:18.860Z,92.53
2022-10-13T10:05:49.366Z,92.38
2022-10-13T10:08:25.286Z,92.07
2022-10-13T10:10:50.834Z,92.29
2022-10-13T10:13:21.136Z,92.42
2022-10-13T10:15:51.727Z,92.01
2022-10-13T10:18:22.534Z,92.46
2022-10-13T10:20:53.304Z,92.76
2022-10-13T10:23:24.121Z,92.09
2022-10-13T10:25:54.257Z,91.47
2022-10-13T10:28:24.852Z,92.26
2022-10-13T10:30:55.334Z,91.75
2022-10-13T10:33:25.517Z,93.24
2022-10-13T10:35:56.085Z,93.04
2022-10-13T10:38:26.160Z,93.44
2022-10-13T10:40:56.343Z,92.55
2022-10-13T10:43:26.515Z,92.66
2022-10-13T10:45:56.920Z,93.86
2022-10-13T10:48:27.022Z,93.27
2022-10-13T10:50:57.488Z,93.12
2022-10-13T10:53:27.585Z,93.06
2022-10-13T10:55:58.349Z,94.05
2022-10-13T10:58:28.462Z,93.79
2022-10-13T11:00:59.233Z,93.93
2022-10-13T11:03:29.944Z,93.93
2022-10-13T11:06:00.696Z,95.44
2022-10-13T11:08:30.783Z,96.98
2022-10-13T11:11:01.546Z,96.28
2022-10-13T11:13:31.565Z,94.91
2022-10-13T11:16:02.399Z,94.19
2022-10-13T11:18:32.706Z,94.16
2022-10-13T11:21:03.253Z,93.92
2022-10-13T11:23:33.649Z,93.56
2022-10-13T11:26:04.026Z,93.74
2022-10-13T11:28:34.589Z,94.07
2022-10-13T11:31:04.634Z,93.56
2022-10-13T11:33:35.372Z,93.54
2022-10-13T11:36:05.833Z,93.09
2022-10-13T11:38:36.183Z,93.55
2022-10-13T11:41:06.368Z,95.36
2022-10-13T11:43:36.781Z,96.57
2022-10-13T11:46:07.191Z,95.67
2022-10-13T11:48:37.644Z,94.86
2022-10-13T11:51:08.827Z,95.04
2022-10-13T11:53:38.189Z,94.35
2022-10-13T11:56:08.764Z,94.74
2022-10-13T11:58:39.071Z,94.32
2022-10-13T12:01:09.755Z,93.89
2022-10-13T12:03:40.425Z,94.01
2022-10-13T12:06:11.165Z,92.70
2022-10-13T12:08:41.307Z,93.48
2022-10-13T12:11:11.721Z,92.59
2022-10-13T12:13:41.943Z,92.83
2022-10-13T12:16:12.311Z,93.15
2022-10-13T12:18:42.614Z,94.75
2022-10-13T12:21:12.886Z,95.80
2022-10-13T12:23:43.192Z,95.68
2022-10-13T12:26:13.334Z,95.43
2022-10-13T12:28:44.198Z,95.29
2022-10-13T12:31:14.726Z,94.62
2022-10-13T12:33:44.740Z,94.48
2022-10-13T12:36:15.251Z,93.72
2022-10-13T12:38:45.903Z,93.33
2022-10-13T12:41:15.934Z,93.35
2022-10-13T12:43:46.209Z,93.65
2022-10-13T12:46:16.133Z,93.56
2022-10-13T12:48:46.276Z,92.93
2022-10-13T12:51:16.413Z,92.74
2022-10-13T12:53:47.031Z,92.59
2022-10-13T12:56:17.189Z,92.94
2022-10-13T12:58:47.325Z,93.74
2022-10-13T13:01:17.435Z,93.35
2022-10-13T13:03:47.754Z,93.12
2022-10-13T13:06:18.447Z,92.16
2022-10-13T13:08:48.565Z,91.08
2022-10-13T13:11:18.660Z,91.53
2022-10-13T13:13:49.127Z,92.63
2022-10-13T13:16:19.188Z,92.25
2022-10-13T13:18:49.609Z,92.57
2022-10-13T13:21:20.324Z,92.06
2022-10-13T13:23:53.756Z,91.32
2022-10-13T13:26:21.126Z,91.66
2022-10-13T13:28:51.747Z,92.25
2022-10-13T13:31:22.325Z,94.00
2022-10-13T13:33:52.620Z,93.74
2022-10-13T13:36:23.266Z,93.84
2022-10-13T13:38:53.486Z,92.94
2022-10-13T13:41:24.181Z,92.45
2022-10-13T13:43:54.779Z,92.32
2022-10-13T13:46:25.203Z,92.09
2022-10-13T13:48:55.543Z,91.90
2022-10-13T13:51:26.138Z,91.98
2022-10-13T13:53:56.670Z,92.27
2022-10-13T13:56:26.804Z,92.28
2022-10-13T13:58:57.333Z,93.05
2022-10-13T14:01:28.257Z,93.20
2022-10-13T14:03:58.793Z,93.56
2022-10-13T14:06:29.116Z,93.64
2022-10-13T14:08:59.440Z,93.91
2022-10-13T14:11:30.073Z,94.10
2022-10-13T14:14:00.217Z,94.60
2022-10-13T14:16:30.613Z,96.10
2022-10-13T14:19:00.930Z,94.46
2022-10-13T14:21:31.167Z,94.45
2022-10-13T14:24:01.546Z,95.17
2022-10-13T14:26:32.166Z,96.01
2022-10-13T14:29:02.298Z,95.19
2022-10-13T14:31:32.710Z,92.87
2022-10-13T14:34:02.985Z,93.33
2022-10-13T14:36:33.727Z,94.31
2022-10-13T14:39:03.952Z,94.82
2022-10-13T14:41:34.176Z,94.11
2022-10-13T14:44:04.496Z,94.54
2022-10-13T14:46:35.166Z,94.63
2022-10-13T14:49:05.297Z,95.69
2022-10-13T14:51:35.688Z,94.51
2022-10-13T14:54:05.862Z,95.54
2022-10-13T14:56:36.048Z,95.13
2022-10-13T14:59:06.206Z,96.17
2022-10-13T15:01:36.477Z,97.21
2022-10-13T15:04:07.092Z,96.52
2022-10-13T15:06:37.236Z,95.19
2022-10-13T15:09:10.045Z,94.82
2022-10-13T15:11:37.536Z,95.10
2022-10-13T15:14:07.968Z,95.20
2022-10-13T15:16:38.359Z,94.53
2022-10-13T15:19:08.767Z,95.27
2022-10-13T15:21:39.598Z,94.72
2022-10-13T15:24:09.761Z,94.37
2022-10-13T15:26:39.952Z,94.94
2022-10-13T15:29:10.031Z,94.55
2022-10-13T15:31:40.971Z,95.97
2022-10-13T15:34:11.058Z,97.46
2022-10-13T15:36:41.274Z,97.33
2022-10-13T15:39:11.843Z,97.49
2022-10-13T15:41:41.957Z,96.40
2022-10-13T15:44:12.615Z,95.82
2022-10-13T15:47:05.493Z,96.95
2022-10-13T15:49:13.334Z,96.15
2022-10-13T15:51:43.763Z,95.62
2022-10-13T15:54:13.926Z,95.04
2022-10-13T15:56:44.736Z,95.50
2022-10-13T15:59:15.169Z,96.12
2022-10-13T16:01:45.830Z,95.49
2022-10-13T16:04:16.423Z,95.58
2022-10-13T16:06:47.095Z,94.99
2022-10-13T16:09:17.303Z,97.68
2022-10-13T16:11:47.924Z,97.46
2022-10-13T16:14:18.654Z,97.65
2022-10-13T16:16:48.822Z,96.63
2022-10-13T16:19:18.904Z,94.46
2022-10-13T16:21:49.208Z,95.51
2022-10-13T16:24:19.246Z,94.91
2022-10-13T16:26:49.347Z,94.78
2022-10-13T16:29:20.169Z,94.84
2022-10-13T16:31:50.537Z,95.73
2022-10-13T16:34:21.299Z,95.01
2022-10-13T16:36:51.347Z,94.91
2022-10-13T16:39:22.142Z,95.03
2022-10-13T16:41:52.626Z,94.53
2022-10-13T16:44:22.773Z,96.20
2022-10-13T16:46:52.955Z,96.91
2022-10-13T16:49:23.109Z,97.64
2022-10-13T16:51:53.306Z,96.68
2022-10-13T16:54:23.735Z,95.39
2022-10-13T16:56:53.846Z,95.01
2022-10-13T16:59:24.513Z,95.65
2022-10-13T17:01:55.283Z,95.11
2022-10-13T17:04:26.052Z,95.51
2022-10-13T17:06:56.672Z,94.58
2022-10-13T17:09:27.136Z,95.28
2022-10-13T17:11:57.667Z,95.13
2022-10-13T17:14:28.049Z,94.57
2022-10-13T17:16:58.850Z,95.80
2022-10-13T17:19:29.164Z,95.14
2022-10-13T17:21:59.390Z,96.89
2022-10-13T17:24:30.176Z,97.92
2022-10-13T17:27:00.731Z,97.41
2022-10-13T17:29:31.355Z,95.70
2022-10-13T17:32:01.527Z,95.84
2022-10-13T17:34:31.919Z,95.05
2022-10-13T17:37:02.675Z,95.75
2022-10-13T17:39:32.740Z,95.42
2022-10-13T17:42:03.386Z,94.97
2022-10-13T17:44:34.057Z,95.11
2022-10-13T17:47:04.106Z,94.67
2022-10-13T17:49:34.731Z,95.48
2022-10-13T17:52:04.920Z,95.15
2022-10-13T17:54:35.541Z,95.65
2022-10-13T17:57:06.337Z,96.39
2022-10-13T17:59:36.683Z,97.39
2022-10-13T18:02:07.233Z,97.40
2022-10-13T18:04:37.774Z,96.53
2022-10-13T18:07:08.673Z,95.43
2022-10-13T18:09:39.261Z,95.88
2022-10-13T18:12:09.527Z,95.19
2022-10-13T18:14:39.854Z,94.70
2022-10-13T18:17:09.911Z,95.45
2022-10-13T18:19:40.384Z,95.23
2022-10-13T18:22:10.306Z,95.10
2022-10-13T18:24:40.546Z,95.24
2022-10-13T18:27:11.008Z,95.29
2022-10-13T18:29:41.801Z,94.95
2022-10-13T18:32:12.499Z,95.23
2022-10-13T18:34:43.121Z,95.89
2022-10-13T18:37:13.593Z,96.31
2022-10-13T18:39:43.713Z,96.28
2022-10-13T18:42:14.052Z,95.51
2022-10-13T18:44:44.608Z,94.92
2022-10-13T18:47:14.689Z,94.52
2022-10-13T18:49:45.470Z,94.40
2022-10-13T18:52:16.259Z,94.23
2022-10-13T18:54:46.652Z,94.66
2022-10-13T18:57:16.837Z,94.35
2022-10-13T18:59:47.539Z,94.73
2022-10-13T19:02:18.022Z,94.75
2022-10-13T19:04:48.241Z,94.36
2022-10-13T19:07:18.828Z,95.91
2022-10-13T19:09:49.159Z,97.41
2022-10-13T19:12:19.627Z,97.23
2022-10-13T19:14:49.988Z,96.52
2022-10-13T19:17:20.992Z,95.16
2022-10-13T19:19:50.737Z,94.47
2022-10-13T19:22:20.807Z,94.86
2022-10-13T19:24:51.309Z,95.13
2022-10-13T19:27:21.890Z,95.10
2022-10-13T19:29:52.226Z,94.97
2022-10-13T19:32:22.696Z,94.49
2022-10-13T19:34:53.520Z,94.45
2022-10-13T19:37:24.198Z,94.80
2022-10-13T19:39:54.948Z,94.15
2022-10-13T19:42:25.460Z,95.44
2022-10-13T19:44:56.314Z,96.59
2022-10-13T19:47:27.087Z,96.82
2022-10-13T19:49:57.708Z,96.30
2022-10-13T19:52:28.560Z,94.97
2022-10-13T19:54:58.663Z,94.99
2022-10-13T19:57:29.430Z,94.54
2022-10-13T19:59:59.845Z,95.23
2022-10-13T20:02:29.973Z,94.45
2022-10-13T20:05:00.466Z,94.55
2022-10-13T20:07:31.123Z,94.04
2022-10-13T20:10:01.753Z,95.11
2022-10-13T20:12:32.372Z,95.14
2022-10-13T20:15:02.770Z,94.68
2022-10-13T20:17:33.035Z,95.09
2022-10-13T20:20:03.660Z,96.06
2022-10-13T20:22:33.929Z,96.04
2022-10-13T20:25:04.413Z,95.48
2022-10-13T20:27:34.962Z,94.24
2022-10-13T20:30:05.224Z,93.75
2022-10-13T20:32:35.372Z,93.65
2022-10-13T20:35:05.850Z,93.84
2022-10-13T20:37:36.259Z,93.67
2022-10-13T20:40:07.071Z,93.58
2022-10-13T20:42:37.316Z,93.51
2022-10-13T20:45:07.519Z,92.97
2022-10-13T20:47:37.541Z,92.35
2022-10-13T20:50:07.949Z,93.23
2022-10-13T20:52:37.991Z,93.95
2022-10-13T20:55:08.520Z,94.65
2022-10-13T20:57:38.843Z,95.20
2022-10-13T21:00:09.307Z,94.49
2022-10-13T21:02:39.643Z,93.95
2022-10-13T21:05:10.142Z,93.26
2022-10-13T21:07:40.750Z,92.91
2022-10-13T21:10:11.500Z,92.52
2022-10-13T21:12:41.664Z,93.52
2022-10-13T21:15:11.878Z,92.80
2022-10-13T21:17:42.645Z,92.66
2022-10-13T21:20:12.824Z,93.04
2022-10-13T21:22:42.962Z,93.39
2022-10-13T21:25:13.755Z,93.32
2022-10-13T21:27:44.104Z,93.85
2022-10-13T21:30:14.802Z,95.01
2022-10-13T21:32:45.662Z,97.02
2022-10-13T21:35:16.421Z,95.50
2022-10-13T21:37:46.673Z,94.75
2022-10-13T21:40:17.028Z,93.93
2022-10-13T21:42:47.758Z,94.63
2022-10-13T21:45:18.399Z,93.83
2022-10-13T21:47:48.495Z,94.51
2022-10-13T21:50:18.723Z,94.04
2022-10-13T21:52:48.855Z,95.03
2022-10-13T21:55:18.893Z,95.20
2022-10-13T21:57:49.539Z,98.07
2022-10-13T22:00:19.997Z,96.87
2022-10-13T22:02:49.638Z,96.88
2022-10-13T22:05:20.378Z,97.59
2022-10-13T22:07:51.153Z,96.15
2022-10-13T22:10:21.549Z,95.77
2022-10-13T22:12:51.904Z,94.73
2022-10-13T22:15:22.379Z,93.95
2022-10-13T22:17:53.075Z,94.06
2022-10-13T22:20:23.617Z,93.03
2022-10-13T22:22:54.078Z,93.95
2022-10-13T22:25:24.371Z,94.22
2022-10-13T22:27:54.919Z,93.34
2022-10-13T22:30:25.470Z,93.68
2022-10-13T22:32:56.139Z,93.22
2022-10-13T22:35:26.935Z,93.71
2022-10-13T22:37:57.358Z,94.72
2022-10-13T22:40:27.977Z,95.45
2022-10-13T22:42:58.332Z,95.29
2022-10-13T22:45:28.993Z,94.16
2022-10-13T22:47:58.926Z,93.23
2022-10-13T22:50:29.149Z,92.74
2022-10-13T22:52:59.584Z,93.40
2022-10-13T22:55:29.866Z,93.44
2022-10-13T22:58:00.436Z,93.72
2022-10-13T23:00:30.996Z,94.38
2022-10-13T23:03:01.851Z,93.98
2022-10-13T23:05:32.076Z,93.91
2022-10-13T23:08:02.381Z,93.56
2022-10-13T23:10:32.775Z,94.57
2022-10-13T23:13:03.158Z,95.92
2022-10-13T23:15:33.401Z,97.43
2022-10-13T23:18:03.734Z,97.08
2022-10-13T23:20:33.842Z,95.85
2022-10-13T23:23:04.641Z,95.13
2022-10-13T23:25:35.311Z,94.93
2022-10-13T23:28:05.592Z,94.76
2022-10-13T23:30:36.278Z,95.20
2022-10-13T23:33:06.399Z,95.26
2022-10-13T23:35:36.612Z,95.39
2022-10-13T23:38:06.787Z,94.94
2022-10-13T23:40:37.671Z,94.73
2022-10-13T23:43:07.816Z,94.34
2022-10-13T23:45:38.179Z,95.50
2022-10-13T23:48:08.361Z,97.28
2022-10-13T23:50:39.070Z,98.13
2022-10-13T23:53:09.304Z,97.53
2022-10-13T23:55:39.886Z,96.45
2022-10-13T23:58:10.016Z,95.53
